createdAt,value
2017-10-19T00:01:02.197Z,81.80
2017-10-19T00:03:35.393Z,81.90
2017-10-19T00:06:08.319Z,81.90
2017-10-19T00:08:41.228Z,81.80
2017-10-19T00:11:13.655Z,82.40
2017-10-19T00:13:46.553Z,81.80
2017-10-19T00:16:19.257Z,81.80
2017-10-19T00:18:51.867Z,81.70
2017-10-19T00:21:25.500Z,81.70
2017-10-19T00:23:58.521Z,81.70
2017-10-19T00:26:31.033Z,81.80
2017-10-19T00:29:04.502Z,81.60
2017-10-19T00:31:37.886Z,81.60
2017-10-19T00:34:10.297Z,81.60
2017-10-19T00:36:43.032Z,81.60
2017-10-19T00:39:16.441Z,81.60
2017-10-19T00:41:49.188Z,81.60
2017-10-19T00:44:21.663Z,81.70
2017-10-19T00:46:54.402Z,81.70
2017-10-19T00:49:26.831Z,81.70
2017-10-19T00:51:59.334Z,81.60
2017-10-19T00:54:32.723Z,81.70
2017-10-19T00:57:06.103Z,81.50
2017-10-19T00:59:38.603Z,81.40
2017-10-19T01:02:11.191Z,81.60
2017-10-19T01:04:44.615Z,81.60
2017-10-19T01:07:17.320Z,81.60
2017-10-19T01:09:49.980Z,81.60
2017-10-19T01:12:23.698Z,81.60
2017-10-19T01:14:56.573Z,81.60
2017-10-19T01:17:29.168Z,81.70
2017-10-19T01:20:01.901Z,81.60
2017-10-19T01:22:34.611Z,81.50
2017-10-19T01:25:07.114Z,81.50
2017-10-19T01:27:40.695Z,81.60
2017-10-19T01:30:13.574Z,81.50
2017-10-19T01:32:46.410Z,81.50
2017-10-19T01:35:19.112Z,81.50
2017-10-19T01:37:51.849Z,81.60
2017-10-19T01:40:24.341Z,81.60
2017-10-19T01:42:57.182Z,81.60
2017-10-19T01:45:29.857Z,81.50
2017-10-19T01:48:02.597Z,81.50
2017-10-19T01:50:35.049Z,81.50
2017-10-19T01:53:07.675Z,81.40
2017-10-19T01:55:40.274Z,81.50
2017-10-19T01:58:13.617Z,81.50
2017-10-19T02:00:46.896Z,81.60
2017-10-19T02:03:19.721Z,81.70
2017-10-19T02:05:52.341Z,81.60
2017-10-19T02:08:25.238Z,81.70
2017-10-19T02:10:59.328Z,81.70
2017-10-19T02:13:32.055Z,81.70
2017-10-19T02:16:04.619Z,81.60
2017-10-19T02:18:38.052Z,81.60
2017-10-19T02:21:10.581Z,81.60
2017-10-19T02:23:43.338Z,81.80
2017-10-19T02:26:16.062Z,81.90
2017-10-19T02:28:49.492Z,81.60
2017-10-19T02:31:22.507Z,81.60
2017-10-19T02:33:55.266Z,81.60
2017-10-19T02:36:27.974Z,81.60
2017-10-19T02:39:00.867Z,81.60
2017-10-19T02:41:33.421Z,81.60
2017-10-19T02:44:06.327Z,81.50
2017-10-19T02:46:38.936Z,81.50
2017-10-19T02:49:12.559Z,81.60
2017-10-19T02:51:46.409Z,82.30
2017-10-19T02:54:19.999Z,81.70
2017-10-19T02:56:52.827Z,81.70
2017-10-19T02:59:25.543Z,81.60
2017-10-19T03:01:58.833Z,81.70
2017-10-19T03:04:31.619Z,81.90
2017-10-19T03:07:05.040Z,82.10
2017-10-19T03:09:37.648Z,82.10
2017-10-19T03:12:10.071Z,82.20
2017-10-19T03:14:42.558Z,82.10
2017-10-19T03:17:15.948Z,82.00
2017-10-19T03:19:48.526Z,82.00
2017-10-19T03:22:21.087Z,82.00
2017-10-19T03:24:54.260Z,82.00
2017-10-19T03:27:27.169Z,82.00
2017-10-19T03:29:59.711Z,82.10
2017-10-19T03:32:33.124Z,82.10
2017-10-19T03:35:06.623Z,82.60
2017-10-19T03:37:39.574Z,82.10
2017-10-19T03:40:12.424Z,81.90
2017-10-19T03:42:44.945Z,81.80
2017-10-19T03:45:18.466Z,81.80
2017-10-19T03:47:51.404Z,81.80
2017-10-19T03:50:24.437Z,81.70
2017-10-19T03:52:57.737Z,81.60
2017-10-19T03:55:30.601Z,81.50
2017-10-19T03:58:03.017Z,81.40
2017-10-19T04:00:35.604Z,81.30
2017-10-19T04:03:08.299Z,81.30
2017-10-19T04:05:41.055Z,81.20
2017-10-19T04:08:14.430Z,81.20
2017-10-19T04:10:47.319Z,81.20
2017-10-19T04:13:19.818Z,81.20
2017-10-19T04:15:53.154Z,81.40
2017-10-19T04:18:25.837Z,81.40
2017-10-19T04:20:58.449Z,81.40
2017-10-19T04:23:31.885Z,81.40
2017-10-19T04:26:05.255Z,81.40
2017-10-19T04:28:37.693Z,81.40
2017-10-19T04:31:10.429Z,81.40
2017-10-19T04:33:43.839Z,81.40
2017-10-19T04:36:17.096Z,81.50
2017-10-19T04:38:49.861Z,81.50
2017-10-19T04:41:22.395Z,81.70
2017-10-19T04:43:55.044Z,81.70
2017-10-19T04:46:28.637Z,81.70
2017-10-19T04:49:02.225Z,81.50
2017-10-19T04:51:35.446Z,81.50
2017-10-19T04:54:07.977Z,81.40
2017-10-19T04:56:40.843Z,81.50
2017-10-19T04:59:13.321Z,81.50
2017-10-19T05:01:46.050Z,81.40
2017-10-19T05:04:18.861Z,81.50
2017-10-19T05:06:51.713Z,81.50
2017-10-19T05:09:24.737Z,81.70
2017-10-19T05:11:57.459Z,81.70
2017-10-19T05:14:30.033Z,81.60
2017-10-19T05:17:02.608Z,81.50
2017-10-19T05:19:35.495Z,81.20
2017-10-19T05:22:07.985Z,81.10
2017-10-19T05:24:40.618Z,81.00
2017-10-19T05:27:13.021Z,81.20
2017-10-19T05:29:45.523Z,81.30
2017-10-19T05:32:18.820Z,81.20
2017-10-19T05:34:51.280Z,81.20
2017-10-19T05:37:23.863Z,81.20
2017-10-19T05:39:57.987Z,81.20
2017-10-19T05:42:30.772Z,81.00
2017-10-19T05:45:03.313Z,81.40
2017-10-19T05:47:36.703Z,81.40
2017-10-19T05:50:09.445Z,81.40
2017-10-19T05:52:42.166Z,81.40
2017-10-19T05:55:22.276Z,81.40
2017-10-19T05:57:55.720Z,81.30
2017-10-19T06:00:28.977Z,81.50
2017-10-19T06:03:02.721Z,81.60
2017-10-19T06:05:35.458Z,81.60
2017-10-19T06:08:07.994Z,81.70
2017-10-19T06:10:41.508Z,81.80
2017-10-19T06:13:14.631Z,81.80
2017-10-19T06:15:47.337Z,81.80
2017-10-19T06:18:21.034Z,81.90
2017-10-19T06:20:53.980Z,81.90
2017-10-19T06:23:26.582Z,81.90
2017-10-19T06:25:59.202Z,82.10
2017-10-19T06:28:31.845Z,82.10
2017-10-19T06:31:04.702Z,82.20
2017-10-19T06:33:37.920Z,82.00
2017-10-19T06:36:10.686Z,81.90
2017-10-19T06:38:43.249Z,81.80
2017-10-19T06:41:15.729Z,81.40
2017-10-19T06:43:48.279Z,81.30
2017-10-19T06:46:20.637Z,81.40
2017-10-19T06:48:54.064Z,81.30
2017-10-19T06:51:27.350Z,80.80
2017-10-19T06:54:00.588Z,80.90
2017-10-19T06:56:33.128Z,80.50
2017-10-19T06:59:05.662Z,80.10
2017-10-19T07:01:38.330Z,80.40
2017-10-19T07:04:10.965Z,79.90
2017-10-19T07:06:43.626Z,78.30
2017-10-19T07:09:16.415Z,78.00
2017-10-19T07:11:49.055Z,77.80
2017-10-19T07:14:21.662Z,77.60
2017-10-19T07:16:55.284Z,75.60
2017-10-19T07:19:28.405Z,75.60
2017-10-19T07:22:01.534Z,75.80
2017-10-19T07:24:34.352Z,74.30
2017-10-19T07:27:06.926Z,73.90
2017-10-19T07:29:39.633Z,74.00
2017-10-19T07:32:12.884Z,72.50
2017-10-19T07:34:45.686Z,72.50
2017-10-19T07:37:18.313Z,72.80
2017-10-19T07:39:51.100Z,72.80
2017-10-19T07:42:24.462Z,72.30
2017-10-19T07:44:57.139Z,70.60
2017-10-19T07:47:29.720Z,68.50
2017-10-19T07:50:02.983Z,68.70
2017-10-19T07:52:35.497Z,68.30
2017-10-19T07:55:08.486Z,68.50
2017-10-19T07:57:41.366Z,67.90
2017-10-19T08:00:14.439Z,67.20
2017-10-19T08:02:46.974Z,66.80
2017-10-19T08:05:20.203Z,65.80
2017-10-19T08:07:52.889Z,65.00
2017-10-19T08:10:25.404Z,64.90
2017-10-19T08:12:57.812Z,63.90
2017-10-19T08:15:30.281Z,65.50
2017-10-19T08:18:02.837Z,64.30
2017-10-19T08:20:35.397Z,63.10
2017-10-19T08:23:08.045Z,62.90
2017-10-19T08:25:40.790Z,63.00
2017-10-19T08:28:13.342Z,61.90
2017-10-19T08:30:46.597Z,62.00
2017-10-19T08:33:20.263Z,61.40
2017-10-19T08:35:52.928Z,62.10
2017-10-19T08:38:25.452Z,59.70
2017-10-19T08:40:58.816Z,60.10
2017-10-19T08:43:31.478Z,60.00
2017-10-19T08:46:04.348Z,58.70
2017-10-19T08:48:36.860Z,58.50
2017-10-19T08:51:09.400Z,58.40
2017-10-19T08:53:41.835Z,57.80
2017-10-19T08:56:14.525Z,57.20
2017-10-19T08:58:47.039Z,57.80
2017-10-19T09:01:20.021Z,57.20
2017-10-19T09:03:52.504Z,56.50
2017-10-19T09:06:25.635Z,55.20
2017-10-19T09:08:58.618Z,53.80
2017-10-19T09:11:32.502Z,52.90
2017-10-19T09:14:05.474Z,52.80
2017-10-19T09:16:38.579Z,51.90
2017-10-19T09:19:11.422Z,52.00
2017-10-19T09:21:44.190Z,51.00
2017-10-19T09:24:16.805Z,49.60
2017-10-19T09:26:49.323Z,48.90
2017-10-19T09:29:21.864Z,48.90
2017-10-19T09:31:54.340Z,48.00
2017-10-19T09:34:26.994Z,49.20
2017-10-19T09:36:59.685Z,46.50
2017-10-19T09:39:32.167Z,47.60
2017-10-19T09:42:04.837Z,46.90
2017-10-19T09:44:37.264Z,45.70
2017-10-19T09:47:10.510Z,45.60
2017-10-19T09:49:43.218Z,45.60
2017-10-19T09:52:15.979Z,46.50
2017-10-19T09:54:48.406Z,46.00
2017-10-19T09:57:20.981Z,44.60
2017-10-19T09:59:53.498Z,44.70
2017-10-19T10:02:26.109Z,43.80
2017-10-19T10:04:59.357Z,45.00
2017-10-19T10:07:32.136Z,45.00
2017-10-19T10:10:04.626Z,44.80
2017-10-19T10:12:37.641Z,44.90
2017-10-19T10:15:11.511Z,45.20
2017-10-19T10:17:44.641Z,45.30
2017-10-19T10:20:17.719Z,45.00
2017-10-19T10:22:50.760Z,44.90
2017-10-19T10:25:23.533Z,44.60
2017-10-19T10:27:56.232Z,44.60
2017-10-19T10:30:28.805Z,45.10
2017-10-19T10:33:01.353Z,45.60
2017-10-19T10:35:35.477Z,46.40
2017-10-19T10:38:08.293Z,46.40
2017-10-19T10:40:41.447Z,48.00
2017-10-19T10:43:14.238Z,48.00
2017-10-19T10:45:46.801Z,48.60
2017-10-19T10:48:19.394Z,49.20
2017-10-19T10:50:51.948Z,49.40
2017-10-19T10:53:24.577Z,49.60
2017-10-19T10:55:57.221Z,49.80
2017-10-19T10:58:29.847Z,49.60
2017-10-19T11:01:02.306Z,50.00
2017-10-19T11:03:34.767Z,50.80
2017-10-19T11:06:08.263Z,50.10
2017-10-19T11:08:40.881Z,49.30
2017-10-19T11:11:13.299Z,49.50
2017-10-19T11:13:45.942Z,50.00
2017-10-19T11:16:19.109Z,51.20
2017-10-19T11:18:52.759Z,51.20
2017-10-19T11:21:25.459Z,51.10
2017-10-19T11:23:58.753Z,51.80
2017-10-19T11:26:31.162Z,51.80
2017-10-19T11:29:04.972Z,52.30
2017-10-19T11:31:38.358Z,52.20
2017-10-19T11:34:11.180Z,51.60
2017-10-19T11:36:43.924Z,51.60
2017-10-19T11:39:16.515Z,51.80
2017-10-19T11:41:49.130Z,52.20
2017-10-19T11:44:22.504Z,52.20
2017-10-19T11:46:55.774Z,52.20
2017-10-19T11:49:28.516Z,52.20
2017-10-19T11:52:01.840Z,52.20
2017-10-19T11:54:35.598Z,52.30
2017-10-19T11:57:08.550Z,52.30
2017-10-19T11:59:41.875Z,52.60
2017-10-19T12:02:14.716Z,52.60
2017-10-19T12:04:47.185Z,52.30
2017-10-19T12:07:19.885Z,52.40
2017-10-19T12:09:52.599Z,52.60
2017-10-19T12:12:25.192Z,52.90
2017-10-19T12:14:57.841Z,52.80
2017-10-19T12:17:30.463Z,52.30
2017-10-19T12:20:03.194Z,53.20
2017-10-19T12:22:35.838Z,53.30
2017-10-19T12:25:08.367Z,53.40
2017-10-19T12:27:41.029Z,53.30
2017-10-19T12:30:14.043Z,53.20
2017-10-19T12:32:46.453Z,53.40
2017-10-19T12:35:19.826Z,53.40
2017-10-19T12:37:53.244Z,53.90
2017-10-19T12:40:25.678Z,53.90
2017-10-19T12:42:58.747Z,54.10
2017-10-19T12:45:31.770Z,53.80
2017-10-19T12:48:04.632Z,53.60
2017-10-19T12:50:37.148Z,53.00
2017-10-19T12:53:09.677Z,52.60
2017-10-19T12:55:42.343Z,52.60
2017-10-19T12:58:14.806Z,51.90
2017-10-19T13:00:47.426Z,51.10
2017-10-19T13:03:19.938Z,50.80
2017-10-19T13:05:53.123Z,50.80
2017-10-19T13:08:25.800Z,50.80
2017-10-19T13:10:58.575Z,50.30
2017-10-19T13:13:30.979Z,48.80
2017-10-19T13:16:03.674Z,48.40
2017-10-19T13:18:36.187Z,48.70
2017-10-19T13:21:08.823Z,48.20
2017-10-19T13:23:41.575Z,48.20
2017-10-19T13:26:14.054Z,49.10
2017-10-19T13:28:46.634Z,48.20
2017-10-19T13:31:19.372Z,48.20
2017-10-19T13:33:52.555Z,48.20
2017-10-19T13:36:25.404Z,48.20
2017-10-19T13:38:57.913Z,48.20
2017-10-19T13:41:30.430Z,48.20
2017-10-19T13:44:03.062Z,48.00
2017-10-19T13:46:35.899Z,47.60
2017-10-19T13:49:09.953Z,47.10
2017-10-19T13:51:43.286Z,47.60
2017-10-19T13:54:16.165Z,47.60
2017-10-19T13:56:49.015Z,47.80
2017-10-19T13:59:21.968Z,47.90
2017-10-19T14:01:54.695Z,49.60
2017-10-19T14:04:27.343Z,51.40
2017-10-19T14:07:00.697Z,55.80
2017-10-19T14:09:33.363Z,55.80
2017-10-19T14:12:05.851Z,56.30
2017-10-19T14:14:38.292Z,56.70
2017-10-19T14:17:11.059Z,56.50
2017-10-19T14:19:43.522Z,56.90
2017-10-19T14:22:16.263Z,56.80
2017-10-19T14:24:48.819Z,57.10
2017-10-19T14:27:22.223Z,58.00
2017-10-19T14:29:55.064Z,58.00
2017-10-19T14:32:27.575Z,58.40
2017-10-19T14:35:00.088Z,58.70
2017-10-19T14:37:32.829Z,59.20
2017-10-19T14:40:05.425Z,59.50
2017-10-19T14:42:38.068Z,58.20
2017-10-19T14:45:10.561Z,57.40
2017-10-19T14:47:43.084Z,57.40
2017-10-19T14:50:16.397Z,57.70
2017-10-19T14:52:48.846Z,58.00
2017-10-19T14:55:21.634Z,58.10
2017-10-19T14:57:54.441Z,58.20
2017-10-19T15:00:27.083Z,58.20
2017-10-19T15:03:00.028Z,59.20
2017-10-19T15:05:32.919Z,59.40
2017-10-19T15:08:05.783Z,59.90
2017-10-19T15:10:38.800Z,59.80
2017-10-19T15:13:11.282Z,56.40
2017-10-19T15:15:43.961Z,54.40
2017-10-19T15:18:17.185Z,50.80
2017-10-19T15:20:50.025Z,50.80
2017-10-19T15:23:22.540Z,51.00
2017-10-19T15:25:55.124Z,52.50
2017-10-19T15:28:27.726Z,52.70
2017-10-19T15:31:00.266Z,53.10
2017-10-19T15:33:32.826Z,53.70
2017-10-19T15:36:06.166Z,53.60
2017-10-19T15:38:38.999Z,53.60
2017-10-19T15:41:11.464Z,53.70
2017-10-19T15:43:44.759Z,54.50
2017-10-19T15:46:18.445Z,55.10
2017-10-19T15:48:51.236Z,55.10
2017-10-19T15:51:24.599Z,55.80
2017-10-19T15:53:57.361Z,55.80
2017-10-19T15:56:30.102Z,56.20
2017-10-19T15:59:03.539Z,57.40
2017-10-19T16:01:36.068Z,58.20
2017-10-19T16:04:15.770Z,59.10
2017-10-19T16:06:49.018Z,60.20
2017-10-19T16:09:22.144Z,60.10
2017-10-19T16:11:54.987Z,60.80
2017-10-19T16:14:29.160Z,62.00
2017-10-19T16:17:02.405Z,61.90
2017-10-19T16:19:35.184Z,62.40
2017-10-19T16:22:07.962Z,63.50
2017-10-19T16:24:40.739Z,64.20
2017-10-19T16:27:14.764Z,65.20
2017-10-19T16:29:47.555Z,65.20
2017-10-19T16:32:20.129Z,65.20
2017-10-19T16:34:53.438Z,67.30
2017-10-19T16:37:26.123Z,67.30
2017-10-19T16:39:58.727Z,68.70
2017-10-19T16:42:31.983Z,68.70
2017-10-19T16:45:05.564Z,68.50
2017-10-19T16:47:38.488Z,68.50
2017-10-19T16:50:11.112Z,68.80
2017-10-19T16:52:43.629Z,69.70
2017-10-19T16:55:16.169Z,70.30
2017-10-19T16:57:48.765Z,70.30
2017-10-19T17:00:21.494Z,70.50
2017-10-19T17:02:54.149Z,70.70
2017-10-19T17:05:26.761Z,71.00
2017-10-19T17:08:00.215Z,71.70
2017-10-19T17:10:34.027Z,72.20
2017-10-19T17:13:06.628Z,72.10
2017-10-19T17:15:39.333Z,72.50
2017-10-19T17:18:12.556Z,73.20
2017-10-19T17:20:45.948Z,73.60
2017-10-19T17:23:18.526Z,73.60
2017-10-19T17:25:51.048Z,73.80
2017-10-19T17:28:23.910Z,73.90
2017-10-19T17:30:57.374Z,74.30
2017-10-19T17:33:31.398Z,74.80
2017-10-19T17:36:04.298Z,74.80
2017-10-19T17:38:37.280Z,75.00
2017-10-19T17:41:10.679Z,75.20
2017-10-19T17:43:44.951Z,75.60
2017-10-19T17:46:18.770Z,75.60
2017-10-19T17:48:52.198Z,75.40
2017-10-19T17:51:25.766Z,75.10
2017-10-19T17:53:59.659Z,74.80
2017-10-19T17:56:33.097Z,74.60
2017-10-19T17:59:06.712Z,74.60
2017-10-19T18:01:41.370Z,74.40
2017-10-19T18:04:14.675Z,74.40
2017-10-19T18:06:48.440Z,74.60
2017-10-19T18:09:22.495Z,74.30
2017-10-19T18:11:56.471Z,74.60
2017-10-19T18:14:30.539Z,74.70
2017-10-19T18:17:05.741Z,75.00
2017-10-19T18:19:41.139Z,75.00
2017-10-19T18:22:15.250Z,75.00
2017-10-19T18:24:49.610Z,75.30
2017-10-19T18:27:24.641Z,75.30
2017-10-19T18:29:58.885Z,75.30
2017-10-19T18:32:33.095Z,75.50
2017-10-19T18:35:07.341Z,75.70
2017-10-19T18:37:41.851Z,75.80
2017-10-19T18:40:15.883Z,75.90
2017-10-19T18:42:50.251Z,76.00
2017-10-19T18:45:25.158Z,76.20
2017-10-19T18:47:59.612Z,76.30
2017-10-19T18:50:34.156Z,76.40
2017-10-19T18:53:08.485Z,76.60
2017-10-19T18:55:43.699Z,76.70
2017-10-19T18:58:18.697Z,76.80
2017-10-19T19:00:54.115Z,77.00
2017-10-19T19:03:29.794Z,77.50
2017-10-19T19:06:04.459Z,77.20
2017-10-19T19:08:39.843Z,77.40
2017-10-19T19:11:14.778Z,77.50
2017-10-19T19:13:49.764Z,77.50
2017-10-19T19:16:24.264Z,77.80
2017-10-19T19:18:59.841Z,77.80
2017-10-19T19:21:34.850Z,77.70
2017-10-19T19:24:11.151Z,77.80
2017-10-19T19:26:45.779Z,77.80
2017-10-19T19:29:21.547Z,78.20
2017-10-19T19:31:55.775Z,77.80
2017-10-19T19:34:31.402Z,77.90
2017-10-19T19:37:06.493Z,78.00
2017-10-19T19:39:40.981Z,77.90
2017-10-19T19:42:16.354Z,78.20
2017-10-19T19:44:51.468Z,78.20
2017-10-19T19:47:25.796Z,78.50
2017-10-19T19:50:02.168Z,78.50
2017-10-19T19:52:37.005Z,78.40
2017-10-19T19:55:11.912Z,78.40
2017-10-19T19:57:46.417Z,78.70
2017-10-19T20:00:21.281Z,79.50
2017-10-19T20:02:56.503Z,79.00
2017-10-19T20:05:32.308Z,79.00
2017-10-19T20:08:08.001Z,79.00
2017-10-19T20:10:42.889Z,79.20
2017-10-19T20:13:17.671Z,79.30
2017-10-19T20:15:52.842Z,79.30
2017-10-19T20:18:27.678Z,79.30
2017-10-19T20:21:02.434Z,79.40
2017-10-19T20:23:38.021Z,79.50
2017-10-19T20:26:13.744Z,79.50
2017-10-19T20:28:50.195Z,79.50
2017-10-19T20:31:24.379Z,79.50
2017-10-19T20:33:59.158Z,79.40
2017-10-19T20:36:34.941Z,79.50
2017-10-19T20:39:09.587Z,79.50
2017-10-19T20:41:45.071Z,79.70
2017-10-19T20:44:18.931Z,79.70
2017-10-19T20:46:53.558Z,79.80
2017-10-19T20:49:27.899Z,79.90
2017-10-19T20:52:02.061Z,79.90
2017-10-19T20:54:36.952Z,80.00
2017-10-19T20:57:11.681Z,80.10
2017-10-19T20:59:45.589Z,80.60
2017-10-19T21:02:18.476Z,80.30
2017-10-19T21:04:51.826Z,80.20
2017-10-19T21:07:25.077Z,80.40
2017-10-19T21:09:59.307Z,80.40
2017-10-19T21:12:33.800Z,80.50
2017-10-19T21:15:07.103Z,81.30
2017-10-19T21:17:40.122Z,80.50
2017-10-19T21:20:12.771Z,80.60
2017-10-19T21:22:45.503Z,80.70
2017-10-19T21:25:18.188Z,80.60
2017-10-19T21:27:52.063Z,80.60
2017-10-19T21:30:25.230Z,80.50
2017-10-19T21:32:57.619Z,80.60
2017-10-19T21:35:30.492Z,80.40
2017-10-19T21:38:03.082Z,80.50
2017-10-19T21:40:35.810Z,80.40
2017-10-19T21:43:08.508Z,80.40
2017-10-19T21:45:41.695Z,80.60
2017-10-19T21:48:14.917Z,80.50
2017-10-19T21:50:47.698Z,80.50
2017-10-19T21:53:20.483Z,80.50
2017-10-19T21:55:53.017Z,80.50
2017-10-19T21:58:25.810Z,80.60
2017-10-19T22:00:59.086Z,80.70
2017-10-19T22:03:32.859Z,80.90
2017-10-19T22:06:05.560Z,80.70
2017-10-19T22:08:38.334Z,80.70
2017-10-19T22:11:11.041Z,80.60
2017-10-19T22:13:43.654Z,80.60
2017-10-19T22:16:16.377Z,80.60
2017-10-19T22:18:49.244Z,80.70
2017-10-19T22:21:22.479Z,80.70
2017-10-19T22:23:54.946Z,80.70
2017-10-19T22:26:28.373Z,80.70
2017-10-19T22:29:01.161Z,81.30
2017-10-19T22:31:33.641Z,80.70
2017-10-19T22:34:06.974Z,80.70
2017-10-19T22:36:40.711Z,80.70
2017-10-19T22:39:13.861Z,80.70
2017-10-19T22:41:47.162Z,80.70
2017-10-19T22:44:21.369Z,80.70
2017-10-19T22:46:54.432Z,80.70
2017-10-19T22:49:27.886Z,80.70
2017-10-19T22:52:01.821Z,80.70
2017-10-19T22:54:34.773Z,80.70
2017-10-19T22:57:07.264Z,80.70
2017-10-19T22:59:40.031Z,80.90
2017-10-19T23:02:12.957Z,80.80
2017-10-19T23:04:45.619Z,80.90
2017-10-19T23:07:18.371Z,80.90
2017-10-19T23:09:51.499Z,80.90
2017-10-19T23:12:24.880Z,80.80
2017-10-19T23:14:57.501Z,80.80
2017-10-19T23:17:30.192Z,80.90
2017-10-19T23:20:02.701Z,80.80
2017-10-19T23:22:35.179Z,80.80
2017-10-19T23:25:07.777Z,80.90
2017-10-19T23:27:40.526Z,81.00
2017-10-19T23:30:13.198Z,81.20
2017-10-19T23:32:45.998Z,81.40
2017-10-19T23:35:18.654Z,81.30
2017-10-19T23:37:51.143Z,81.30
2017-10-19T23:40:25.038Z,81.20
2017-10-19T23:42:57.774Z,81.10
2017-10-19T23:45:31.008Z,81.30
2017-10-19T23:48:03.802Z,81.20
2017-10-19T23:50:36.199Z,81.30
2017-10-19T23:53:09.472Z,81.40
2017-10-19T23:55:42.346Z,81.40
2017-10-19T23:58:15.066Z,81.40
